Terminal Aerodrome Forecast
Issued by NWS

Home | Current Version | Previous Version | Text Only | Print | Product List | Glossary Off
Versions: 1 2 3 4 5 6 7 8 9 10 11 12 13 14 15 16 17 18 19

000
FTUS43 KTOP 311307 AAB
TAFFOE
TAF AMD
KFOE 311307Z 3113/0112 04004KT P6SM SCT002 BKN085
      TEMPO 3113/3116 SCT002 BKN013
     FM311600 01006KT P6SM VCTS SCT015 BKN040CB
     FM312100 03006KT P6SM BKN040
     FM010200 02005KT P6SM SCT150=

USA.gov is the U.S. government's official web portal to all federal, state and local government web resources and services.